Watertown Municipal, SD

9:58 PM CST on February 25, 2017 (GMT -0600)
Watertown Municipal | | Change Station

Elev 1745 ft 44.91 °N, 97.15 °W | Updated 5 minutes ago

Mostly Cloudy
Mostly Cloudy
25 °F
Feels Like 14 °F
N
12
Wind Variable Wind from SSW

Today
High -- | Low -- °F
--% Chance of Precip.
Yesterday
High -- | Low -- °F
Precip. -- in
Pressure 29.79 in
Visibility 10.0 miles
Clouds Few 2500 ft
Scattered Clouds 3700 ft
Mostly Cloudy 4700 ft
Windchill 14 °F
Dew Point 22 °F
Humidity 88%
Rainfall 0.00 in
Snow Depth Not available.
7:12 AM 6:11 PM
Waning Crescent, 0% visible
METAR KATY 260353Z AUTO 21010KT 10SM FEW025 SCT037 BKN047 M04/M06 A2972 RMK AO2 SNE0255 SLP086 P0000 T10391056
Pressure 29.79 in
Visibility 10.0 miles
Clouds Few 2500 ft
Scattered Clouds 3700 ft
Mostly Cloudy 4700 ft
Windchill 14 °F
Dew Point 22 °F
Humidity 88%
Rainfall 0.00 in
Snow Depth Not available.
7:12 AM 6:11 PM
Waning Crescent, 0% visible
METAR KATY 260353Z AUTO 21010KT 10SM FEW025 SCT037 BKN047 M04/M06 A2972 RMK AO2 SNE0255 SLP086 P0000 T10391056

Get Your Daily Forecast Email!

Thanks for signing up!

Be on the lookout for a verification email in your inbox.

You'll start receiving the daily forecast at 8 AM.

×

10-Day Weather Forecast

Almanac

Astronomy

Feb. 25, 2017 Rise Set
Actual Time
Civil Twilight
Nautical Twilight
Astronomical Twilight
Moon
Length of Visible Light
Length of Day
Tomorrow will be .
, % of the Moon is Illuminated

Today's Extremes

State Highs State Lows

Community

WunderPhotos

Upload Photos

1,962,540 photos uploaded!

WunderBlog® & News

Nearby

Air Quality

  Air Quality AQ Index Pollutant
Not available.

Snow Depth

Station Depth Elevation

Earthquake Activity

City Distance Mag. Time & Date
Minimum magnitude displayed is 2.5.

Coastal Water Temperatures

Place Temperature

Stations

Nearby Weather Stations

Station Location Temp. Windchill Dew Point Humidity Wind Precip. Elev Updated Type
                   

Watches & Warnings

There are currently no watches in effect.